createdAt,value
2022-08-22T04:02:44.509Z,99638.25
2022-08-22T04:05:59.521Z,99638.25
2022-08-22T04:09:29.191Z,99640.72
2022-08-22T04:13:09.031Z,99646.41
2022-08-22T04:16:54.235Z,99642.19
2022-08-22T04:20:41.482Z,99642.13
2022-08-22T04:23:49.815Z,99651.13
2022-08-22T04:27:02.229Z,99649.00
2022-08-22T04:30:49.870Z,99653.84
2022-08-22T04:34:22.484Z,99654.06
2022-08-22T04:37:27.879Z,99653.25
2022-08-22T04:40:38.919Z,99657.59
2022-08-22T04:43:49.302Z,99664.19
2022-08-22T04:47:00.794Z,99661.81
2022-08-22T04:50:21.487Z,99664.34
2022-08-22T04:54:06.051Z,99661.81
2022-08-22T04:57:27.146Z,99668.13
2022-08-22T05:00:49.057Z,99670.09
2022-08-22T05:03:57.875Z,99672.34
2022-08-22T05:07:15.940Z,99664.66
2022-08-22T05:10:24.267Z,99669.38
2022-08-22T05:14:05.261Z,99668.34
2022-08-22T05:17:10.582Z,99668.06
2022-08-22T05:20:17.515Z,99677.78
2022-08-22T05:23:27.391Z,99680.34
2022-08-22T05:26:37.731Z,99682.06
2022-08-22T05:29:44.164Z,99689.94
2022-08-22T05:32:55.518Z,99688.28
2022-08-22T05:36:00.929Z,99687.59
2022-08-22T05:39:12.006Z,99691.38
2022-08-22T05:42:31.484Z,99698.53
2022-08-22T05:45:36.277Z,99704.69
2022-08-22T05:48:43.726Z,99700.25
2022-08-22T05:52:10.898Z,99698.00
2022-08-22T05:55:31.209Z,99703.34
2022-08-22T05:58:48.291Z,99706.84
2022-08-22T06:02:08.799Z,99709.44
2022-08-22T06:05:12.412Z,99716.63
2022-08-22T06:08:23.853Z,99717.78
2022-08-22T06:11:52.140Z,99713.81
2022-08-22T06:15:11.565Z,99718.44
2022-08-22T06:18:21.007Z,99720.25
2022-08-22T06:21:35.439Z,99719.44
2022-08-22T06:24:43.235Z,99728.75
2022-08-22T06:27:50.906Z,99724.97
2022-08-22T06:30:56.414Z,99726.00
2022-08-22T06:34:12.199Z,99728.53
2022-08-22T06:37:31.563Z,99729.06
2022-08-22T06:40:34.815Z,99733.19
2022-08-22T06:43:43.050Z,99733.69
2022-08-22T06:46:48.070Z,99734.34
2022-08-22T06:49:59.091Z,99742.06
2022-08-22T06:53:11.443Z,99735.94
2022-08-22T06:56:21.734Z,99737.75
2022-08-22T06:59:27.592Z,99730.50
2022-08-22T07:02:36.700Z,99732.56
2022-08-22T07:05:41.704Z,99742.03
2022-08-22T07:08:45.218Z,99731.75
2022-08-22T07:11:48.957Z,99735.00
2022-08-22T07:14:54.354Z,99729.63
2022-08-22T07:18:00.332Z,99735.09
2022-08-22T07:21:04.762Z,99734.72
2022-08-22T07:24:08.035Z,99744.25
2022-08-22T07:27:27.543Z,99741.28
2022-08-22T07:30:54.165Z,99746.69
2022-08-22T07:34:13.290Z,99739.56
2022-08-22T07:37:55.450Z,99741.03
2022-08-22T07:41:22.885Z,99743.22
2022-08-22T07:44:32.690Z,99744.03
2022-08-22T07:48:08.874Z,99744.34
2022-08-22T07:51:17.577Z,99752.66
2022-08-22T07:54:45.451Z,99755.22
2022-08-22T07:57:57.986Z,99753.75
2022-08-22T08:01:01.941Z,99748.75
2022-08-22T08:04:15.464Z,99761.78
2022-08-22T08:07:22.373Z,99751.59
2022-08-22T08:10:35.347Z,99753.78
2022-08-22T08:13:42.155Z,99757.09
2022-08-22T08:17:17.508Z,99755.63
2022-08-22T08:20:22.934Z,99760.47
2022-08-22T08:23:30.046Z,99765.06
2022-08-22T08:27:07.409Z,99767.69
2022-08-22T08:30:44.943Z,99765.19
2022-08-22T08:33:50.280Z,99766.22
2022-08-22T08:37:01.231Z,99768.06
2022-08-22T08:40:16.662Z,99761.31
2022-08-22T08:43:42.334Z,99757.25
2022-08-22T08:46:58.333Z,99763.13
2022-08-22T08:50:10.276Z,99757.63
2022-08-22T08:53:29.288Z,99757.44
2022-08-22T08:56:38.230Z,99751.44
2022-08-22T09:00:05.194Z,99758.50
2022-08-22T09:03:35.419Z,99762.50
2022-08-22T09:06:52.912Z,99755.72
2022-08-22T09:10:19.581Z,99760.34
2022-08-22T09:13:52.310Z,99755.22
2022-08-22T09:17:17.275Z,99752.34
2022-08-22T09:20:39.758Z,99748.50
2022-08-22T09:23:54.530Z,99750.97
2022-08-22T09:27:31.398Z,99745.44
2022-08-22T09:34:34.669Z,99744.16
2022-08-22T09:37:57.570Z,99760.19
2022-08-22T09:40:16.007Z,99752.19
2022-08-22T09:41:18.634Z,99750.69
2022-08-22T09:44:45.073Z,99750.81
2022-08-22T09:48:09.668Z,99751.16
2022-08-22T09:51:32.349Z,99753.25
2022-08-22T09:54:44.615Z,99752.97
2022-08-22T09:57:59.895Z,99751.47
2022-08-22T10:01:15.264Z,99755.25
2022-08-22T10:04:23.911Z,99762.16
2022-08-22T10:07:35.278Z,99754.28
2022-08-22T10:10:46.307Z,99757.34
2022-08-22T10:14:11.228Z,99763.28
2022-08-22T10:17:31.364Z,99765.25
2022-08-22T10:20:49.792Z,99764.87
2022-08-22T10:24:36.580Z,99765.09
2022-08-22T10:27:55.164Z,99765.88
2022-08-22T10:31:30.167Z,99770.19
2022-08-22T10:34:44.553Z,99766.03
2022-08-22T10:37:59.442Z,99763.75
2022-08-22T10:41:09.235Z,99764.16
2022-08-22T10:44:21.636Z,99765.19
2022-08-22T10:47:38.607Z,99763.41
2022-08-22T10:50:47.713Z,99762.63
2022-08-22T10:54:32.629Z,99759.81
2022-08-22T10:58:14.059Z,99760.56
2022-08-22T11:01:37.617Z,99755.28
2022-08-22T11:04:50.289Z,99759.34
2022-08-22T11:08:11.527Z,99757.94
2022-08-22T11:11:22.677Z,99752.97
2022-08-22T11:14:42.408Z,99746.47
2022-08-22T11:18:20.426Z,99748.94
2022-08-22T11:21:36.379Z,99758.25
2022-08-22T11:25:06.329Z,99751.22
2022-08-22T11:28:17.641Z,99756.69
2022-08-22T11:31:36.461Z,99751.75
2022-08-22T11:35:31.600Z,99754.25
2022-08-22T11:38:53.671Z,99752.75
2022-08-22T11:42:21.980Z,99741.87
2022-08-22T11:45:31.208Z,99742.87
2022-08-22T11:48:58.695Z,99743.47
2022-08-22T11:52:37.086Z,99734.63
2022-08-22T11:55:58.646Z,99739.03
2022-08-22T11:59:29.690Z,99728.78
2022-08-22T12:03:05.842Z,99736.59
2022-08-22T12:06:41.724Z,99727.34
2022-08-22T12:10:13.735Z,99720.97
2022-08-22T12:13:34.912Z,99723.16
2022-08-22T12:16:59.241Z,99717.75
2022-08-22T12:20:17.034Z,99716.66
2022-08-22T12:23:22.967Z,99715.03
2022-08-22T12:27:28.434Z,99716.94
2022-08-22T12:30:35.120Z,99721.38
2022-08-22T12:33:50.451Z,99717.25
2022-08-22T12:37:10.280Z,99720.84
2022-08-22T12:40:43.804Z,99716.03
2022-08-22T12:44:05.045Z,99706.41
2022-08-22T12:47:31.907Z,99704.63
2022-08-22T12:50:51.743Z,99709.03
2022-08-22T12:54:18.848Z,99712.53
2022-08-22T12:57:34.822Z,99712.53
2022-08-22T13:00:47.278Z,99706.53
2022-08-22T13:04:19.335Z,99712.91
2022-08-22T13:07:40.687Z,99707.81
2022-08-22T13:10:58.207Z,99716.22
2022-08-22T13:14:02.407Z,99716.12
2022-08-22T13:17:24.648Z,99725.22
2022-08-22T13:20:33.658Z,99722.41
2022-08-22T13:23:45.155Z,99722.72
2022-08-22T13:27:00.242Z,99723.34
2022-08-22T13:30:18.718Z,99722.59
2022-08-22T13:33:35.508Z,99724.06
2022-08-22T13:36:51.613Z,99725.91
2022-08-22T13:40:01.848Z,99732.47
2022-08-22T13:43:12.399Z,99741.66
2022-08-22T13:46:23.315Z,99739.03
2022-08-22T13:49:49.019Z,99738.78
2022-08-22T13:53:08.037Z,99746.31
2022-08-22T13:56:20.055Z,99754.22
2022-08-22T13:59:51.507Z,99750.91
2022-08-22T14:02:59.849Z,99751.88
2022-08-22T14:06:35.220Z,99746.94
2022-08-22T14:09:55.777Z,99748.72
2022-08-22T14:12:58.434Z,99746.31
2022-08-22T14:16:04.112Z,99742.03
2022-08-22T14:19:14.648Z,99735.66
2022-08-22T14:22:31.916Z,99729.34
2022-08-22T14:25:40.251Z,99741.78
2022-08-22T14:28:43.514Z,99732.06
2022-08-22T14:32:01.899Z,99724.09
2022-08-22T14:35:37.818Z,99726.44
2022-08-22T14:38:48.246Z,99724.03
2022-08-22T14:41:58.620Z,99712.91
2022-08-22T14:45:24.942Z,99715.81
2022-08-22T14:48:40.678Z,99717.06
2022-08-22T14:51:58.012Z,99726.50
2022-08-22T14:55:11.911Z,99729.88
2022-08-22T14:58:18.776Z,99740.22
2022-08-22T15:01:33.601Z,99730.59
2022-08-22T15:04:40.655Z,99728.66
2022-08-22T15:07:54.689Z,99733.78
2022-08-22T15:11:27.302Z,99730.12
2022-08-22T15:14:40.296Z,99731.41
2022-08-22T15:17:50.840Z,99722.22
2022-08-22T15:21:24.981Z,99728.09
2022-08-22T15:24:28.464Z,99739.81
2022-08-22T15:27:34.327Z,99737.62
2022-08-22T15:30:44.368Z,99742.66
2022-08-22T15:33:48.530Z,99740.34
2022-08-22T15:37:18.289Z,99734.50
2022-08-22T15:40:47.779Z,99730.50
2022-08-22T15:43:53.856Z,99735.16
2022-08-22T15:47:01.099Z,99734.34
